createdAt,value
2018-09-13T00:01:48.113Z,6.90
2018-09-13T00:04:20.135Z,6.83
2018-09-13T00:06:52.188Z,9.33
2018-09-13T00:09:24.207Z,7.07
2018-09-13T00:11:56.276Z,7.37
2018-09-13T00:14:28.292Z,6.73
2018-09-13T00:17:00.349Z,7.50
2018-09-13T00:19:32.387Z,8.73
2018-09-13T00:22:04.448Z,7.00
2018-09-13T00:24:36.467Z,7.53
2018-09-13T00:27:08.539Z,8.60
2018-09-13T00:29:40.640Z,6.50
2018-09-13T00:32:12.722Z,7.23
2018-09-13T00:34:44.787Z,9.23
2018-09-13T00:37:16.957Z,8.10
2018-09-13T00:39:49.030Z,6.93
2018-09-13T00:42:21.116Z,6.83
2018-09-13T00:44:53.183Z,6.70
2018-09-13T00:47:25.242Z,9.87
2018-09-13T00:49:57.367Z,7.50
2018-09-13T00:52:29.496Z,8.30
2018-09-13T00:55:01.529Z,6.93
2018-09-13T00:57:33.568Z,7.43
2018-09-13T01:00:06.101Z,7.30
2018-09-13T01:02:38.207Z,12.10
2018-09-13T01:05:10.276Z,7.90
2018-09-13T01:07:42.371Z,10.40
2018-09-13T01:10:14.404Z,8.20
2018-09-13T01:12:46.496Z,10.00
2018-09-13T01:15:18.561Z,7.43
2018-09-13T01:17:50.680Z,8.07
2018-09-13T01:20:22.796Z,8.20
2018-09-13T01:22:54.859Z,8.93
2018-09-13T01:25:26.911Z,12.80
2018-09-13T01:27:58.974Z,12.73
2018-09-13T01:30:31.039Z,10.30
2018-09-13T01:33:03.148Z,12.90
2018-09-13T01:35:35.206Z,16.57
2018-09-13T01:38:07.303Z,15.07
2018-09-13T01:40:39.339Z,12.73
2018-09-13T01:43:11.388Z,15.03
2018-09-13T01:45:43.528Z,17.60
2018-09-13T01:48:15.596Z,16.43
2018-09-13T01:50:47.639Z,19.40
2018-09-13T01:53:19.731Z,21.27
2018-09-13T01:55:51.784Z,19.20
2018-09-13T01:58:23.874Z,16.40
2018-09-13T02:00:56.063Z,16.03
2018-09-13T02:03:28.135Z,17.63
2018-09-13T02:06:00.176Z,18.03
2018-09-13T02:08:32.268Z,10.63
2018-09-13T02:11:04.383Z,7.90
2018-09-13T02:13:36.426Z,8.20
2018-09-13T02:16:08.507Z,8.60
2018-09-13T02:18:40.604Z,9.50
2018-09-13T02:21:12.693Z,11.63
2018-09-13T02:23:45.074Z,8.07
2018-09-13T02:26:17.178Z,8.17
2018-09-13T02:28:49.361Z,8.17
2018-09-13T02:31:21.413Z,8.13
2018-09-13T02:33:53.522Z,8.70
2018-09-13T02:36:25.571Z,8.67
2018-09-13T02:38:57.638Z,8.10
2018-09-13T02:41:29.701Z,7.67
2018-09-13T02:44:01.999Z,7.50
2018-09-13T02:46:34.154Z,9.07
2018-09-13T02:49:06.298Z,10.07
2018-09-13T02:51:38.347Z,8.27
2018-09-13T02:54:10.425Z,10.00
2018-09-13T02:56:43.093Z,9.03
2018-09-13T02:59:15.155Z,8.53
2018-09-13T03:01:47.224Z,8.83
2018-09-13T03:04:19.342Z,9.87
2018-09-13T03:06:51.586Z,8.03
2018-09-13T03:09:23.662Z,7.53
2018-09-13T03:11:55.790Z,8.33
2018-09-13T03:14:27.853Z,8.27
2018-09-13T03:16:59.949Z,8.00
2018-09-13T03:19:32.012Z,9.17
2018-09-13T03:22:04.754Z,8.23
2018-09-13T03:24:36.832Z,9.20
2018-09-13T03:27:08.895Z,8.53
2018-09-13T03:29:40.987Z,7.70
2018-09-13T03:32:13.009Z,9.23
2018-09-13T03:34:45.072Z,8.60
2018-09-13T03:37:17.200Z,7.80
2018-09-13T03:39:49.336Z,7.00
2018-09-13T03:42:21.508Z,8.20
2018-09-13T03:44:54.117Z,9.27
2018-09-13T03:47:26.497Z,10.00
2018-09-13T03:49:58.592Z,8.00
2018-09-13T03:52:30.675Z,8.40
2018-09-13T03:55:02.884Z,9.70
2018-09-13T03:57:35.009Z,7.80
2018-09-13T04:00:07.335Z,7.30
2018-09-13T04:02:39.397Z,8.70
2018-09-13T04:05:11.521Z,9.20
2018-09-13T04:07:43.587Z,8.33
2018-09-13T04:10:15.648Z,8.20
2018-09-13T04:12:48.219Z,7.50
2018-09-13T04:15:20.284Z,7.90
2018-09-13T04:17:52.399Z,8.70
2018-09-13T04:20:24.452Z,8.47
2018-09-13T04:22:56.482Z,8.47
2018-09-13T04:25:28.503Z,8.40
2018-09-13T04:28:00.589Z,8.77
2018-09-13T04:30:32.628Z,9.47
2018-09-13T04:33:04.640Z,8.33
2018-09-13T04:35:36.733Z,7.67
2018-09-13T04:38:09.417Z,7.70
2018-09-13T04:40:41.518Z,8.33
2018-09-13T04:43:13.568Z,7.17
2018-09-13T04:45:46.149Z,9.30
2018-09-13T04:48:18.202Z,8.60
2018-09-13T04:50:50.258Z,11.93
2018-09-13T04:53:22.278Z,8.30
2018-09-13T04:55:54.312Z,9.90
2018-09-13T04:58:26.583Z,8.30
2018-09-13T05:00:58.601Z,9.97
2018-09-13T05:03:30.619Z,7.83
2018-09-13T05:06:03.422Z,9.83
2018-09-13T05:08:35.426Z,8.60
2018-09-13T05:11:07.463Z,7.57
2018-09-13T05:13:39.570Z,12.57
2018-09-13T05:16:11.728Z,8.40
2018-09-13T05:18:43.731Z,8.77
2018-09-13T05:21:15.763Z,8.37
2018-09-13T05:23:47.783Z,8.97
2018-09-13T05:26:19.855Z,10.73
2018-09-13T05:28:51.974Z,9.90
2018-09-13T05:31:23.995Z,8.13
2018-09-13T05:33:56.064Z,8.30
2018-09-13T05:36:28.104Z,8.30
2018-09-13T05:39:00.277Z,10.70
2018-09-13T05:41:32.259Z,9.20
2018-09-13T05:44:04.294Z,8.00
2018-09-13T05:46:36.479Z,9.53
2018-09-13T05:49:09.103Z,8.27
2018-09-13T05:51:41.228Z,9.20
2018-09-13T05:54:13.340Z,11.60
2018-09-13T05:56:45.390Z,8.60
2018-09-13T05:59:17.522Z,7.77
2018-09-13T06:01:49.589Z,9.50
2018-09-13T06:04:21.662Z,11.10
2018-09-13T06:06:53.750Z,8.00
2018-09-13T06:09:25.839Z,9.70
2018-09-13T06:11:57.979Z,11.73
2018-09-13T06:14:30.024Z,8.60
2018-09-13T06:17:02.113Z,8.07
2018-09-13T06:19:34.142Z,8.90
2018-09-13T06:22:06.479Z,8.33
2018-09-13T06:24:38.527Z,9.10
2018-09-13T06:27:10.600Z,8.60
2018-09-13T06:29:42.678Z,9.30
2018-09-13T06:32:14.771Z,8.47
2018-09-13T06:34:46.912Z,8.53
2018-09-13T06:37:18.999Z,9.70
2018-09-13T06:39:51.039Z,10.03
2018-09-13T06:42:23.289Z,11.30
2018-09-13T06:44:55.315Z,8.40
2018-09-13T06:47:27.343Z,10.00
2018-09-13T06:49:59.481Z,8.73
2018-09-13T06:52:31.515Z,9.73
2018-09-13T06:55:03.604Z,9.03
2018-09-13T06:57:35.685Z,10.13
2018-09-13T07:00:07.760Z,9.93
2018-09-13T07:02:39.851Z,9.33
2018-09-13T07:05:11.923Z,9.77
2018-09-13T07:07:44.038Z,9.03
2018-09-13T07:10:16.120Z,10.00
2018-09-13T07:12:48.186Z,9.53
2018-09-13T07:15:20.288Z,11.00
2018-09-13T07:17:52.415Z,8.70
2018-09-13T07:20:25.480Z,8.43
2018-09-13T07:22:57.620Z,11.87
2018-09-13T07:25:29.754Z,10.07
2018-09-13T07:28:01.847Z,10.60
2018-09-13T07:30:33.911Z,10.57
2018-09-13T07:33:05.946Z,11.83
2018-09-13T07:35:37.995Z,8.43
2018-09-13T07:38:10.002Z,8.93
2018-09-13T07:40:42.047Z,8.90
2018-09-13T07:43:14.055Z,10.30
2018-09-13T07:45:46.074Z,9.70
2018-09-13T07:48:18.089Z,10.00
2018-09-13T07:50:50.155Z,11.80
2018-09-13T07:53:22.179Z,9.33
2018-09-13T07:55:54.195Z,8.60
2018-09-13T07:58:26.237Z,9.90
2018-09-13T08:00:58.260Z,8.53
2018-09-13T08:03:30.315Z,9.03
2018-09-13T08:06:02.353Z,18.80
2018-09-13T08:08:34.379Z,11.53
2018-09-13T08:11:06.511Z,8.27
2018-09-13T08:13:38.527Z,10.53
2018-09-13T08:16:10.573Z,9.30
2018-09-13T08:18:42.611Z,9.87
2018-09-13T08:21:14.825Z,8.90
2018-09-13T08:23:46.837Z,9.00
2018-09-13T08:26:18.977Z,9.10
2018-09-13T08:28:51.146Z,8.87
2018-09-13T08:31:23.245Z,9.77
2018-09-13T08:33:55.377Z,9.83
2018-09-13T08:36:27.648Z,8.23
2018-09-13T08:38:59.846Z,8.83
2018-09-13T08:41:31.967Z,10.70
2018-09-13T08:44:04.075Z,9.10
2018-09-13T08:46:36.208Z,10.17
2018-09-13T08:49:08.287Z,11.03
2018-09-13T08:51:40.356Z,14.73
2018-09-13T08:54:12.487Z,9.63
2018-09-13T08:56:44.515Z,10.80
2018-09-13T08:59:16.604Z,10.73
2018-09-13T09:01:48.683Z,9.70
2018-09-13T09:04:21.370Z,11.37
2018-09-13T09:06:53.415Z,9.60
2018-09-13T09:09:25.519Z,10.97
2018-09-13T09:11:59.891Z,10.83
2018-09-13T09:14:31.975Z,10.73
2018-09-13T09:17:04.150Z,14.70
2018-09-13T09:19:36.549Z,10.83
2018-09-13T09:22:08.692Z,12.27
2018-09-13T09:24:40.804Z,13.43
2018-09-13T09:27:12.949Z,11.90
2018-09-13T09:29:45.089Z,12.60
2018-09-13T09:32:17.187Z,12.30
2018-09-13T09:34:49.417Z,13.70
2018-09-13T09:37:21.443Z,12.30
2018-09-13T09:39:53.590Z,12.40
2018-09-13T09:42:25.764Z,11.70
2018-09-13T09:44:57.916Z,11.00
2018-09-13T09:47:30.084Z,12.70
2018-09-13T09:50:02.257Z,11.30
2018-09-13T09:52:34.434Z,11.23
2018-09-13T09:55:06.640Z,11.20
2018-09-13T09:57:39.541Z,12.63
2018-09-13T10:00:11.793Z,11.60
2018-09-13T10:02:44.030Z,11.83
2018-09-13T10:05:16.280Z,12.03
2018-09-13T10:07:48.617Z,13.10
2018-09-13T10:10:21.948Z,10.53
2018-09-13T10:12:55.195Z,10.80
2018-09-13T10:15:33.083Z,11.47
2018-09-13T10:18:10.942Z,10.20
2018-09-13T10:20:48.965Z,9.63
2018-09-13T10:23:26.975Z,9.20
2018-09-13T10:26:04.962Z,11.83
2018-09-13T10:28:43.049Z,9.70
2018-09-13T10:31:20.676Z,9.80
2018-09-13T10:33:58.634Z,9.93
2018-09-13T10:37:38.097Z,9.83
2018-09-13T10:40:15.740Z,9.00
2018-09-13T10:42:53.777Z,9.50
2018-09-13T10:45:31.793Z,9.73
2018-09-13T10:48:11.007Z,11.93
2018-09-13T10:50:47.638Z,9.80
2018-09-13T10:53:25.420Z,9.60
2018-09-13T10:55:57.614Z,8.23
2018-09-13T10:58:29.765Z,8.77
2018-09-13T11:01:03.227Z,9.83
2018-09-13T11:03:35.388Z,10.60
2018-09-13T11:06:07.493Z,10.00
2018-09-13T11:08:39.533Z,10.10
2018-09-13T11:11:12.177Z,9.50
2018-09-13T11:13:49.808Z,11.10
2018-09-13T11:16:21.901Z,10.40
2018-09-13T11:18:54.044Z,11.70
2018-09-13T11:21:26.123Z,11.23
2018-09-13T11:23:58.343Z,10.83
2018-09-13T11:26:30.443Z,11.93
2018-09-13T11:29:02.526Z,11.63
2018-09-13T11:31:34.606Z,11.77
2018-09-13T11:34:06.695Z,12.60
2018-09-13T11:36:38.805Z,13.27
2018-09-13T11:39:11.844Z,13.20
2018-09-13T11:41:44.009Z,11.67
2018-09-13T11:44:16.095Z,11.50
2018-09-13T11:46:48.271Z,11.37
2018-09-13T11:49:20.460Z,10.33
2018-09-13T11:51:52.542Z,9.60
2018-09-13T11:54:24.626Z,10.87
2018-09-13T11:56:56.786Z,9.17
2018-09-13T11:59:28.819Z,7.00
2018-09-13T12:02:01.007Z,7.40
2018-09-13T12:04:33.086Z,7.67
2018-09-13T12:07:05.253Z,7.40
2018-09-13T12:09:37.445Z,7.23
2018-09-13T12:12:09.561Z,7.27
2018-09-13T12:14:41.604Z,8.90
2018-09-13T12:17:13.666Z,6.77
2018-09-13T12:19:46.818Z,7.30
2018-09-13T12:22:18.871Z,6.50
2018-09-13T12:24:51.031Z,7.50
2018-09-13T12:27:23.270Z,5.60
2018-09-13T12:29:55.324Z,5.87
2018-09-13T12:32:27.468Z,5.07
2018-09-13T12:34:59.496Z,7.13
2018-09-13T12:37:31.632Z,5.07
2018-09-13T12:40:04.250Z,5.13
2018-09-13T12:42:36.405Z,6.63
2018-09-13T12:45:09.243Z,5.30
2018-09-13T12:47:41.461Z,6.90
2018-09-13T12:50:13.603Z,7.73
2018-09-13T12:52:45.757Z,5.00
2018-09-13T12:55:17.934Z,6.27
2018-09-13T12:57:49.964Z,4.67
2018-09-13T13:00:22.073Z,4.60
2018-09-13T13:02:54.215Z,5.70
2018-09-13T13:05:26.342Z,10.43
2018-09-13T13:07:58.509Z,4.50
2018-09-13T13:10:30.692Z,9.43
2018-09-13T13:13:02.921Z,5.33
2018-09-13T13:15:35.020Z,8.87
2018-09-13T13:18:07.128Z,5.50
2018-09-13T13:20:39.212Z,9.17
2018-09-13T13:23:11.355Z,4.63
2018-09-13T13:25:43.431Z,4.90
2018-09-13T13:28:15.638Z,4.97
2018-09-13T13:30:47.784Z,5.70
2018-09-13T13:33:19.870Z,5.60
2018-09-13T13:35:51.988Z,5.30
2018-09-13T13:38:24.068Z,6.33
2018-09-13T13:40:56.164Z,5.77
2018-09-13T13:43:28.256Z,4.40
2018-09-13T13:46:00.556Z,9.23
2018-09-13T13:48:32.669Z,5.27
2018-09-13T13:51:04.784Z,4.50
2018-09-13T13:53:36.834Z,4.53
2018-09-13T13:56:08.916Z,5.07
2018-09-13T13:58:41.009Z,5.33
2018-09-13T14:01:13.119Z,4.50
2018-09-13T14:03:45.233Z,7.13
2018-09-13T14:06:17.327Z,3.77
2018-09-13T14:08:49.392Z,6.30
2018-09-13T14:11:21.432Z,4.40
2018-09-13T14:13:53.536Z,5.47
2018-09-13T14:16:25.692Z,5.33
2018-09-13T14:18:57.757Z,13.83
2018-09-13T14:21:30.031Z,7.30
2018-09-13T14:24:02.158Z,5.30
2018-09-13T14:26:34.235Z,4.97
2018-09-13T14:29:06.379Z,5.37
2018-09-13T14:31:38.492Z,5.90
2018-09-13T14:34:10.520Z,6.13
2018-09-13T14:36:42.738Z,11.30
2018-09-13T14:39:14.821Z,9.50
2018-09-13T14:41:46.949Z,7.70
2018-09-13T14:44:19.205Z,11.87
2018-09-13T14:46:51.560Z,11.10
2018-09-13T14:49:25.788Z,9.87
2018-09-13T14:51:57.949Z,13.17
2018-09-13T14:54:30.060Z,7.37
2018-09-13T14:57:02.256Z,8.10
2018-09-13T14:59:35.323Z,6.87
2018-09-13T15:02:07.458Z,6.37
2018-09-13T15:04:39.836Z,5.83
2018-09-13T15:07:13.204Z,7.07
2018-09-13T15:09:45.329Z,6.10
2018-09-13T15:12:17.439Z,8.77
2018-09-13T15:14:49.546Z,7.20
2018-09-13T15:17:22.696Z,7.03
2018-09-13T15:19:54.830Z,7.47
2018-09-13T15:22:26.863Z,7.07
2018-09-13T15:24:58.990Z,7.70
2018-09-13T15:27:31.056Z,7.90
2018-09-13T15:30:03.232Z,9.90
2018-09-13T15:32:35.313Z,8.93
2018-09-13T15:35:07.451Z,9.20
2018-09-13T15:37:39.519Z,9.27
2018-09-13T15:40:11.724Z,9.80
2018-09-13T15:42:43.999Z,8.00
2018-09-13T15:45:16.044Z,9.30
2018-09-13T15:47:48.129Z,8.90
2018-09-13T15:50:20.447Z,8.30
2018-09-13T15:52:52.588Z,8.70
2018-09-13T15:55:24.652Z,8.53
2018-09-13T15:57:57.079Z,9.70
2018-09-13T16:00:29.347Z,8.63
2018-09-13T16:03:01.411Z,6.90
2018-09-13T16:05:33.466Z,7.10
2018-09-13T16:08:05.596Z,8.40
2018-09-13T16:10:37.700Z,7.97
2018-09-13T16:13:09.808Z,9.10
2018-09-13T16:15:41.832Z,7.90
2018-09-13T16:18:14.044Z,8.20
2018-09-13T16:20:46.129Z,8.33
2018-09-13T16:23:18.248Z,7.57
2018-09-13T16:25:50.303Z,9.57
2018-09-13T16:28:22.435Z,9.00
2018-09-13T16:30:54.531Z,9.60
2018-09-13T16:33:26.619Z,8.57
2018-09-13T16:36:00.238Z,10.97
2018-09-13T16:38:39.124Z,9.47
2018-09-13T16:41:17.027Z,11.60
2018-09-13T16:43:54.887Z,10.20
2018-09-13T16:46:32.970Z,10.40
2018-09-13T16:49:05.535Z,10.60
2018-09-13T16:51:37.616Z,11.47
2018-09-13T16:54:09.682Z,11.10
2018-09-13T16:56:41.774Z,13.40
2018-09-13T16:59:13.887Z,13.13
2018-09-13T17:01:46.021Z,12.03
2018-09-13T17:04:18.146Z,23.00
2018-09-13T17:06:50.286Z,19.73
2018-09-13T17:09:22.411Z,11.83
2018-09-13T17:11:54.781Z,12.00
2018-09-13T17:14:26.923Z,9.40
2018-09-13T17:16:59.017Z,8.50
2018-09-13T17:19:31.178Z,12.20
2018-09-13T17:22:03.325Z,9.27
2018-09-13T17:24:35.748Z,8.60
2018-09-13T17:27:07.980Z,9.23
2018-09-13T17:29:40.066Z,8.07
2018-09-13T17:32:12.197Z,9.43
2018-09-13T17:34:44.402Z,10.10
2018-09-13T17:37:16.529Z,8.10
2018-09-13T17:39:48.732Z,8.10
2018-09-13T17:42:20.847Z,8.50
2018-09-13T17:44:53.032Z,9.87
2018-09-13T17:47:25.181Z,8.43
2018-09-13T17:49:57.328Z,8.77
2018-09-13T17:52:29.448Z,9.17
2018-09-13T17:55:01.576Z,9.30
2018-09-13T17:57:34.024Z,9.97
2018-09-13T18:00:07.726Z,9.57
2018-09-13T18:02:39.928Z,9.50
2018-09-13T18:05:12.116Z,11.77
2018-09-13T18:07:44.279Z,11.57
2018-09-13T18:10:16.468Z,10.50
2018-09-13T18:12:48.626Z,9.67
2018-09-13T18:15:20.912Z,11.83
2018-09-13T18:17:52.805Z,10.40
2018-09-13T18:20:24.939Z,9.37
2018-09-13T18:22:57.182Z,10.70
2018-09-13T18:25:29.325Z,11.87
2018-09-13T18:28:01.496Z,11.33
2018-09-13T18:30:33.835Z,11.43
2018-09-13T18:33:05.961Z,12.50
2018-09-13T18:35:38.027Z,9.90
2018-09-13T18:38:10.115Z,10.90
2018-09-13T18:40:42.279Z,9.33
2018-09-13T18:43:14.406Z,10.20
2018-09-13T18:45:46.612Z,10.73
2018-09-13T18:48:18.726Z,10.17
2018-09-13T18:50:50.925Z,11.40
2018-09-13T18:53:23.055Z,11.33
2018-09-13T18:55:55.309Z,12.13
2018-09-13T18:58:27.545Z,12.10
2018-09-13T19:00:59.579Z,11.50
2018-09-13T19:03:31.728Z,10.80
2018-09-13T19:06:04.052Z,10.50
2018-09-13T19:08:36.200Z,11.10
2018-09-13T19:11:08.601Z,12.23
2018-09-13T19:13:40.730Z,11.87
2018-09-13T19:16:12.830Z,11.70
2018-09-13T19:18:44.884Z,12.23
2018-09-13T19:21:16.939Z,11.40
2018-09-13T19:23:48.976Z,11.80
2018-09-13T19:26:21.028Z,12.33
2018-09-13T19:28:53.161Z,11.27
2018-09-13T19:31:25.227Z,10.97
2018-09-13T19:33:57.353Z,12.93
2018-09-13T19:36:29.433Z,11.30
2018-09-13T19:39:01.516Z,13.00
2018-09-13T19:41:33.638Z,12.43
2018-09-13T19:44:05.771Z,13.67
2018-09-13T19:46:37.859Z,13.67
2018-09-13T19:49:09.945Z,13.47
2018-09-13T19:51:42.083Z,13.63
2018-09-13T19:54:14.183Z,13.40
2018-09-13T19:56:46.948Z,13.87
2018-09-13T19:59:19.033Z,14.80
2018-09-13T20:01:51.071Z,14.37
2018-09-13T20:04:23.164Z,16.20
2018-09-13T20:06:55.205Z,15.17
2018-09-13T20:09:27.404Z,14.77
2018-09-13T20:11:59.638Z,16.07
2018-09-13T20:14:31.730Z,14.80
2018-09-13T20:17:03.840Z,15.50
2018-09-13T20:19:35.907Z,16.00
2018-09-13T20:22:09.621Z,14.67
2018-09-13T20:24:41.742Z,15.47
2018-09-13T20:27:13.776Z,16.50
2018-09-13T20:29:45.851Z,15.60
2018-09-13T20:32:17.903Z,16.47
2018-09-13T20:34:49.975Z,15.90
2018-09-13T20:37:22.023Z,15.27
2018-09-13T20:39:54.096Z,15.63
2018-09-13T20:42:26.171Z,14.47
2018-09-13T20:44:58.250Z,14.73
2018-09-13T20:47:30.362Z,14.93
2018-09-13T20:50:02.443Z,15.43
2018-09-13T20:52:34.490Z,15.33
2018-09-13T20:55:06.548Z,14.63
2018-09-13T20:57:38.631Z,14.40
2018-09-13T21:00:15.273Z,15.43
2018-09-13T21:02:48.425Z,15.50
2018-09-13T21:05:20.475Z,16.00
2018-09-13T21:07:52.532Z,14.80
2018-09-13T21:10:24.569Z,15.90
2018-09-13T21:12:56.708Z,15.67
2018-09-13T21:15:28.755Z,16.37
2018-09-13T21:18:00.805Z,15.47
2018-09-13T21:20:32.932Z,15.30
2018-09-13T21:23:05.031Z,20.40
2018-09-13T21:25:37.174Z,15.50
2018-09-13T21:28:09.233Z,16.90
2018-09-13T21:30:41.347Z,15.80
2018-09-13T21:33:13.416Z,16.10
2018-09-13T21:35:45.486Z,15.23
2018-09-13T21:38:17.577Z,16.27
2018-09-13T21:40:49.805Z,15.83
2018-09-13T21:43:21.871Z,15.07
2018-09-13T21:45:53.908Z,15.70
2018-09-13T21:48:25.958Z,18.30
2018-09-13T21:50:58.028Z,17.07
2018-09-13T21:53:30.077Z,18.23
2018-09-13T21:56:02.138Z,16.47
2018-09-13T21:58:34.225Z,15.87
2018-09-13T22:01:06.287Z,16.93
2018-09-13T22:03:38.521Z,21.47
2018-09-13T22:06:10.581Z,19.33
2018-09-13T22:08:42.692Z,17.60
2018-09-13T22:11:14.835Z,18.10
2018-09-13T22:13:46.831Z,20.30
2018-09-13T22:16:18.892Z,18.83
2018-09-13T22:18:50.955Z,18.83
2018-09-13T22:21:23.019Z,20.07
2018-09-13T22:23:55.068Z,19.90
2018-09-13T22:26:27.108Z,17.97
2018-09-13T22:28:59.182Z,22.87
2018-09-13T22:31:31.274Z,20.60
2018-09-13T22:34:05.793Z,19.70
2018-09-13T22:36:37.847Z,20.23
2018-09-13T22:39:10.880Z,22.77
2018-09-13T22:41:42.936Z,22.07
2018-09-13T22:44:14.992Z,22.63
2018-09-13T22:46:47.032Z,22.03
2018-09-13T22:49:19.098Z,22.53
2018-09-13T22:51:51.123Z,23.30
2018-09-13T22:54:23.198Z,23.17
2018-09-13T22:56:55.235Z,24.80
2018-09-13T22:59:27.368Z,22.30
2018-09-13T23:01:59.440Z,22.03
2018-09-13T23:04:31.455Z,26.07
2018-09-13T23:07:03.504Z,24.33
2018-09-13T23:09:35.663Z,23.00
2018-09-13T23:12:07.943Z,23.10
2018-09-13T23:14:39.972Z,22.57
2018-09-13T23:17:12.035Z,28.20
2018-09-13T23:19:44.077Z,24.43
2018-09-13T23:22:16.112Z,28.20
2018-09-13T23:24:48.178Z,26.30
2018-09-13T23:27:20.192Z,26.30
2018-09-13T23:29:52.236Z,24.63
2018-09-13T23:32:24.498Z,23.77
2018-09-13T23:35:59.975Z,24.93
2018-09-13T23:38:32.036Z,22.63
2018-09-13T23:41:04.138Z,26.33
2018-09-13T23:43:36.165Z,23.13
2018-09-13T23:46:08.293Z,24.60
2018-09-13T23:48:41.124Z,26.77
2018-09-13T23:51:13.167Z,25.50
2018-09-13T23:53:45.219Z,24.40
2018-09-13T23:56:17.242Z,24.63
2018-09-13T23:58:49.310Z,26.37
